Time;durP1;ratioP1;P1;durP2;ratioP2;P2;SDS_P1;SDS_P2;PMS_P1;PMS_P2;Temp;Humidity;BMP_temperature;BMP_pressure;BME280_temperature;BME280_humidity;BME280_pressure;Samples;Min_cycle;Max_cycle;Signal;HPM_P1;HPM_P2
2021/12/01 00:00:55;;;;;;;3.13;2.20;;;;;;;9.55;94.81;100147.69;4973500;28;96621;-34
2021/12/01 00:03:20;;;;;;;3.28;1.95;;;;;;;9.56;94.79;100136.78;4974925;28;96870;-34
2021/12/01 00:05:46;;;;;;;3.53;1.77;;;;;;;9.53;94.83;100114.47;4974282;28;97959;-34
2021/12/01 00:08:12;;;;;;;5.88;2.15;;;;;;;9.51;94.60;100113.72;4973129;28;101075;-34
2021/12/01 00:10:38;;;;;;;3.10;1.52;;;;;;;9.58;94.73;100115.00;4979808;28;96692;-34
2021/12/01 00:13:06;;;;;;;2.38;1.52;;;;;;;9.57;94.76;100088.97;4980174;28;96808;-34
2021/12/01 00:15:32;;;;;;;2.97;1.63;;;;;;;9.55;94.57;100088.19;4979729;28;100888;-34
2021/12/01 00:17:57;;;;;;;4.57;1.55;;;;;;;9.57;94.59;100081.72;4979569;28;100865;-34
2021/12/01 00:20:23;;;;;;;2.53;1.65;;;;;;;9.57;94.73;100070.03;4981709;28;96536;-34
2021/12/01 00:22:49;;;;;;;5.25;1.52;;;;;;;9.59;94.70;100061.84;4980345;28;96710;-34
2021/12/01 00:25:19;;;;;;;2.47;1.50;;;;;;;9.65;94.38;100050.56;4980931;28;98072;-34
2021/12/01 00:27:46;;;;;;;2.42;1.27;;;;;;;9.62;94.38;100045.38;4979535;28;100735;-34
2021/12/01 00:30:12;;;;;;;3.25;1.27;;;;;;;9.65;94.32;100039.75;4979443;28;96669;-34
2021/12/01 00:32:37;;;;;;;1.40;1.27;;;;;;;9.61;94.36;100036.41;4979756;28;96894;-34
2021/12/01 00:35:07;;;;;;;7.53;1.25;;;;;;;9.61;94.41;100031.00;4981064;28;97910;-34
2021/12/01 00:37:33;;;;;;;3.30;1.13;;;;;;;9.61;94.21;100022.91;4979503;28;101246;-34
2021/12/01 00:39:58;;;;;;;2.17;1.13;;;;;;;9.64;94.62;100021.81;4981261;28;96492;-34
2021/12/01 00:42:23;;;;;;;1.33;1.08;;;;;;;9.59;94.45;100010.47;4981070;28;96800;-34
2021/12/01 00:44:55;;;;;;;1.92;1.27;;;;;;;9.57;94.44;100008.72;4980716;28;99324;-34
2021/12/01 00:47:22;;;;;;;2.78;1.40;;;;;;;9.59;94.91;100007.75;4979817;28;100899;-34
2021/12/01 00:49:48;;;;;;;2.50;1.80;;;;;;;9.59;94.63;100011.31;4980835;28;96601;-34
2021/12/01 00:52:14;;;;;;;3.30;1.30;;;;;;;9.61;94.76;100001.25;4981232;28;96762;-34
2021/12/01 00:54:39;;;;;;;1.70;0.80;;;;;;;9.64;94.65;100001.03;4980325;28;97406;-34
2021/12/01 00:57:05;;;;;;;2.03;0.85;;;;;;;9.61;94.43;99995.84;4979990;28;126470;-34
2021/12/01 00:59:30;;;;;;;1.67;0.70;;;;;;;9.64;94.81;99984.81;4980489;28;96856;-34
2021/12/01 01:01:55;;;;;;;2.28;1.23;;;;;;;9.61;94.31;99979.63;4980825;28;96777;-34
2021/12/01 01:04:21;;;;;;;1.45;0.80;;;;;;;9.61;94.56;99978.78;4979327;28;99756;-34
2021/12/01 01:06:46;;;;;;;2.58;1.58;;;;;;;9.61;94.36;99970.66;4980699;28;97346;-34
2021/12/01 01:09:12;;;;;;;2.08;0.82;;;;;;;9.60;94.50;99956.25;4980845;28;96541;-34
2021/12/01 01:17:10;;;;;;;2.05;1.20;;;;;;;9.63;94.31;99965.97;4980013;28;97023;-34
2021/12/01 01:19:38;;;;;;;4.13;1.10;;;;;;;9.57;94.38;99946.53;4980413;28;96632;-34
2021/12/01 01:22:05;;;;;;;1.92;1.13;;;;;;;9.62;94.21;99948.03;4975968;28;96914;-34
2021/12/01 01:24:31;;;;;;;1.80;0.98;;;;;;;9.51;94.50;99930.78;4975327;28;101042;-34
2021/12/01 01:26:56;;;;;;;1.00;0.82;;;;;;;9.59;94.62;99946.44;4977250;28;97808;-34
2021/12/01 01:29:23;;;;;;;1.77;1.20;;;;;;;9.57;94.55;99929.44;4977446;28;96573;-34
2021/12/01 01:31:57;;;;;;;2.67;0.90;;;;;;;9.52;94.62;99921.66;4975794;28;96817;-34
2021/12/01 01:34:24;;;;;;;1.02;0.80;;;;;;;9.53;94.76;99911.72;4977128;28;97881;-34
2021/12/01 01:36:50;;;;;;;1.13;0.80;;;;;;;9.50;94.81;99926.31;4975698;28;100761;-34
2021/12/01 01:39:16;;;;;;;1.33;0.70;;;;;;;9.47;95.03;99913.03;4976889;28;96644;-34
2021/12/01 01:41:42;;;;;;;1.45;0.90;;;;;;;9.48;94.89;99912.03;4975679;28;96862;-34
2021/12/01 01:44:07;;;;;;;1.02;0.70;;;;;;;9.50;94.79;99903.84;4977566;28;97886;-34
2021/12/01 01:46:35;;;;;;;0.50;0.40;;;;;;;9.44;94.70;99882.63;4976516;28;105741;-34
2021/12/01 01:49:11;;;;;;;0.73;0.50;;;;;;;9.44;94.57;99874.53;4975636;28;96681;-34
2021/12/01 01:51:40;;;;;;;0.98;0.70;;;;;;;9.41;94.51;99874.75;4976466;28;96597;-34
2021/12/01 01:54:05;;;;;;;0.65;0.40;;;;;;;9.40;94.69;99873.91;4976541;28;98004;-34
2021/12/01 01:56:31;;;;;;;0.73;0.40;;;;;;;9.31;94.50;99864.63;4976664;28;97552;-34
2021/12/01 01:58:56;;;;;;;1.35;0.68;;;;;;;9.33;94.77;99861.81;4976729;28;96447;-34
2021/12/01 02:03:56;;;;;;;1.73;0.68;;;;;;;9.32;94.83;99871.78;4976042;28;97959;-34
2021/12/01 02:06:23;;;;;;;0.68;0.40;;;;;;;9.29;94.76;99849.50;4975506;28;114717;-34
2021/12/01 02:08:50;;;;;;;0.47;0.35;;;;;;;9.30;94.83;99852.09;4976173;28;96678;-34
2021/12/01 02:11:17;;;;;;;1.15;0.70;;;;;;;9.25;94.74;99810.19;4975062;28;96783;-34
2021/12/01 02:13:44;;;;;;;0.55;0.47;;;;;;;9.23;94.79;99814.81;4974949;28;100595;-34
2021/12/01 02:16:10;;;;;;;0.65;0.40;;;;;;;9.24;94.74;99813.84;4974865;28;100764;-34
2021/12/01 02:18:36;;;;;;;0.95;0.60;;;;;;;9.24;94.56;99803.88;4974989;28;96504;-34
2021/12/01 02:21:26;;;;;;;0.70;0.40;;;;;;;9.25;94.51;99793.97;4975052;28;96838;-34
2021/12/01 02:23:53;;;;;;;0.85;0.60;;;;;;;9.18;94.67;99776.47;4974634;28;100917;-34
2021/12/01 02:26:20;;;;;;;1.67;0.50;;;;;;;9.20;94.67;99775.38;4974842;28;100692;-34
2021/12/01 02:28:49;;;;;;;0.70;0.45;;;;;;;9.15;94.56;99769.44;4958826;28;96635;-34
2021/12/01 02:31:15;;;;;;;1.13;0.80;;;;;;;9.13;94.73;99747.94;4976033;28;96753;-34
2021/12/01 02:33:41;;;;;;;1.33;0.93;;;;;;;9.18;94.65;99761.13;4973965;28;100791;-34
2021/12/01 02:36:11;;;;;;;2.00;1.10;;;;;;;9.12;94.91;99750.75;4974597;28;100795;-34
2021/12/01 02:38:40;;;;;;;1.25;0.80;;;;;;;9.12;94.72;99754.31;4974717;28;96619;-34
2021/12/01 02:41:05;;;;;;;1.55;0.70;;;;;;;9.07;94.71;99755.63;4974782;28;96742;-34
2021/12/01 02:43:31;;;;;;;0.85;0.47;;;;;;;9.05;94.58;99719.75;4975880;28;97882;-34
2021/12/01 02:45:56;;;;;;;1.35;1.02;;;;;;;9.07;94.64;99725.91;4975599;28;97843;-34
2021/12/01 02:48:23;;;;;;;2.45;0.98;;;;;;;9.02;94.62;99715.44;4975542;28;104734;-34
2021/12/01 02:50:49;;;;;;;0.90;0.60;;;;;;;9.00;94.38;99708.44;4974923;28;96824;-34
2021/12/01 02:53:16;;;;;;;2.22;1.20;;;;;;;9.00;94.60;99703.03;4973992;28;100797;-34
2021/12/01 02:55:53;;;;;;;2.00;1.20;;;;;;;9.00;94.57;99700.34;4974076;28;100990;-34
2021/12/01 02:58:20;;;;;;;2.80;1.08;;;;;;;8.97;94.35;99687.06;4975357;28;96676;-34
2021/12/01 03:00:47;;;;;;;2.65;1.08;;;;;;;8.97;94.67;99676.25;4975129;28;96819;-34
2021/12/01 03:03:14;;;;;;;1.38;0.90;;;;;;;8.91;94.59;99659.53;4973979;28;101391;-34
2021/12/01 03:05:40;;;;;;;1.63;1.00;;;;;;;8.95;94.51;99668.25;4974154;28;100758;-34
2021/12/01 03:08:07;;;;;;;0.80;0.75;;;;;;;8.93;94.28;99654.88;4974382;28;96635;-34
2021/12/01 03:10:33;;;;;;;1.17;0.88;;;;;;;8.92;94.39;99650.44;4974453;28;96739;-34
2021/12/01 03:12:58;;;;;;;3.53;1.35;;;;;;;8.84;94.35;99639.38;4974998;28;99352;-34
2021/12/01 03:15:23;;;;;;;1.02;0.82;;;;;;;8.86;94.40;99631.13;4975007;28;119608;-34
2021/12/01 03:17:49;;;;;;;1.92;1.17;;;;;;;8.89;94.43;99630.91;4975744;28;96724;-34
2021/12/01 03:20:15;;;;;;;0.88;0.57;;;;;;;8.87;94.36;99625.63;4975830;28;96720;-34
2021/12/01 03:22:43;;;;;;;1.23;1.02;;;;;;;8.87;94.36;99619.38;4973213;28;99941;-34
2021/12/01 03:25:14;;;;;;;3.03;1.70;;;;;;;8.84;94.18;99606.06;4974794;28;101692;-34
2021/12/01 03:27:39;;;;;;;3.20;1.40;;;;;;;8.82;94.16;99600.81;4973842;28;97821;-34
2021/12/01 03:30:10;;;;;;;1.42;0.93;;;;;;;8.77;94.31;99584.09;4975411;28;96771;-34
2021/12/01 03:32:35;;;;;;;1.95;0.90;;;;;;;8.75;93.75;99564.44;4973610;28;102887;-34
2021/12/01 03:35:05;;;;;;;1.83;1.08;;;;;;;8.73;93.82;99565.53;4973691;28;99112;-34
2021/12/01 03:37:30;;;;;;;1.15;0.77;;;;;;;8.79;93.86;99565.91;4973929;28;96721;-34
2021/12/01 03:39:58;;;;;;;2.45;1.42;;;;;;;8.74;93.71;99564.56;4975864;28;96718;-34
2021/12/01 03:42:23;;;;;;;1.42;0.95;;;;;;;8.76;93.71;99557.22;4974911;28;97965;-34
2021/12/01 03:44:49;;;;;;;2.00;1.45;;;;;;;8.65;93.52;99548.09;4973540;28;122196;-34
2021/12/01 03:47:14;;;;;;;1.08;0.95;;;;;;;8.71;93.66;99531.41;4973782;28;117885;-34
2021/12/01 03:49:39;;;;;;;1.98;0.80;;;;;;;8.64;93.61;99529.28;4974593;28;106405;-34
2021/12/01 03:52:05;;;;;;;1.83;1.02;;;;;;;8.66;93.62;99521.94;4973879;28;126597;-34
2021/12/01 03:54:31;;;;;;;1.35;0.63;;;;;;;8.63;93.69;99514.09;4974539;28;98029;-34
2021/12/01 03:56:56;;;;;;;1.00;0.80;;;;;;;8.60;93.73;99525.94;4975014;28;96414;-34
2021/12/01 03:59:21;;;;;;;0.43;0.43;;;;;;;8.64;93.90;99513.09;4974922;28;96725;-34
2021/12/01 04:01:47;;;;;;;1.50;0.95;;;;;;;8.61;93.53;99511.50;4973949;28;119190;-34
2021/12/01 04:04:12;;;;;;;2.15;1.25;;;;;;;8.61;93.48;99487.19;4974831;28;110114;-34
2021/12/01 04:06:37;;;;;;;1.73;1.08;;;;;;;8.54;93.42;99466.19;4974270;28;110662;-34
2021/12/01 04:09:04;;;;;;;3.13;1.73;;;;;;;8.57;93.35;99472.19;4975158;28;96732;-35
2021/12/01 04:11:30;;;;;;;3.78;1.48;;;;;;;8.60;93.37;99480.06;4974183;28;98375;-34
2021/12/01 04:13:56;;;;;;;0.77;0.70;;;;;;;8.53;92.82;99443.72;4975063;28;97333;-34
2021/12/01 04:16:22;;;;;;;11.38;1.88;;;;;;;8.62;93.19;99458.34;4975065;28;96446;-34
2021/12/01 04:19:18;;;;;;;6.35;2.08;;;;;;;8.61;93.30;99451.25;4975041;28;96727;-34
2021/12/01 04:21:44;;;;;;;7.00;2.00;;;;;;;8.52;93.21;99435.75;4973913;28;99321;-34
2021/12/01 04:24:10;;;;;;;5.85;2.63;;;;;;;8.53;93.32;99437.47;4974273;28;98969;-34
2021/12/01 04:26:36;;;;;;;2.72;1.95;;;;;;;8.55;93.14;99435.50;4973108;28;96809;-34
2021/12/01 04:29:03;;;;;;;3.33;1.95;;;;;;;8.51;93.21;99440.31;4973671;28;96824;-34
2021/12/01 04:31:31;;;;;;;4.13;2.13;;;;;;;8.53;93.25;99432.06;4974317;28;98160;-34
2021/12/01 04:33:56;;;;;;;5.32;2.15;;;;;;;8.50;93.40;99420.53;4972986;28;101137;-34
2021/12/01 04:36:29;;;;;;;6.35;3.10;;;;;;;8.45;93.48;99422.72;4972549;28;96597;-34
2021/12/01 04:38:55;;;;;;;4.95;2.58;;;;;;;8.45;93.57;99405.66;4974879;28;96519;-34
2021/12/01 04:41:22;;;;;;;10.05;3.22;;;;;;;8.44;93.56;99409.34;4974303;28;97815;-34
2021/12/01 04:43:48;;;;;;;8.63;2.28;;;;;;;8.39;93.60;99400.69;4974387;28;97880;-34
2021/12/01 04:46:16;;;;;;;3.90;2.60;;;;;;;8.43;93.84;99408.47;4974754;28;96549;-34
2021/12/01 04:48:42;;;;;;;6.20;2.50;;;;;;;8.36;93.56;99380.22;4972999;28;96813;-34
2021/12/01 04:51:08;;;;;;;12.55;3.63;;;;;;;8.40;93.69;99392.53;4972712;28;101225;-34
2021/12/01 04:53:33;;;;;;;3.30;2.17;;;;;;;8.37;93.68;99381.94;4974344;28;97400;-34
2021/12/01 04:55:59;;;;;;;5.38;2.78;;;;;;;8.37;93.71;99376.56;4974576;28;96431;-34
2021/12/01 04:58:24;;;;;;;6.25;3.42;;;;;;;8.38;93.73;99377.41;4978141;28;96750;-34
2021/12/01 05:00:49;;;;;;;5.82;2.28;;;;;;;8.33;93.62;99375.06;4976770;28;98069;-34
2021/12/01 05:03:15;;;;;;;5.25;2.65;;;;;;;8.37;93.74;99365.75;4977301;28;97848;-34
2021/12/01 05:05:40;;;;;;;7.72;3.60;;;;;;;8.38;93.84;99356.69;4978026;28;96439;-34
2021/12/01 05:08:05;;;;;;;4.53;2.55;;;;;;;8.38;93.65;99353.13;4976901;28;108273;-34
2021/12/01 05:10:31;;;;;;;5.07;2.15;;;;;;;8.32;93.67;99332.88;4977574;28;96781;-34
2021/12/01 05:12:56;;;;;;;5.53;2.20;;;;;;;8.34;93.39;99335.44;4977412;28;99379;-34
2021/12/01 05:15:21;;;;;;;4.68;2.53;;;;;;;8.36;93.58;99337.03;4977272;28;96407;-34
2021/12/01 05:17:47;;;;;;;4.78;2.15;;;;;;;8.32;93.39;99324.78;4977861;28;96719;-35
2021/12/01 05:20:13;;;;;;;4.70;2.20;;;;;;;8.37;93.67;99333.38;4977149;28;98308;-35
2021/12/01 05:22:39;;;;;;;4.43;2.38;;;;;;;8.37;93.82;99337.94;4975611;28;101402;-35
2021/12/01 05:25:05;;;;;;;4.88;1.85;;;;;;;8.37;93.97;99324.44;4975235;28;96579;-35
2021/12/01 05:27:31;;;;;;;5.45;2.55;;;;;;;8.36;93.78;99314.59;4977321;28;96762;-34
2021/12/01 05:29:56;;;;;;;2.72;2.10;;;;;;;8.34;93.86;99317.41;4975634;28;101430;-35
2021/12/01 05:32:22;;;;;;;3.28;2.00;;;;;;;8.30;93.75;99319.50;4977035;28;97779;-35
2021/12/01 05:34:48;;;;;;;4.47;2.47;;;;;;;8.31;94.05;99323.06;4977230;28;96447;-35
2021/12/01 05:37:13;;;;;;;7.10;1.80;;;;;;;8.35;94.02;99318.28;4975927;28;96774;-34
2021/12/01 05:39:41;;;;;;;2.47;1.42;;;;;;;8.33;94.22;99306.75;4976937;28;97854;-34
2021/12/01 05:42:08;;;;;;;1.85;1.05;;;;;;;8.34;94.34;99313.84;4977167;28;99157;-34
2021/12/01 05:44:34;;;;;;;6.78;1.67;;;;;;;8.29;94.19;99312.41;4975515;28;97069;-34
2021/12/01 05:47:00;;;;;;;1.90;1.17;;;;;;;8.22;94.50;99299.47;4976707;28;96769;-34
2021/12/01 05:49:25;;;;;;;5.93;1.10;;;;;;;8.29;94.54;99309.69;4974839;28;100493;-34
2021/12/01 05:51:51;;;;;;;1.50;1.02;;;;;;;8.30;94.33;99305.16;4976851;28;97807;-34
2021/12/01 05:54:16;;;;;;;1.23;0.77;;;;;;;8.32;94.55;99308.59;4976289;28;100314;-34
2021/12/01 05:56:42;;;;;;;2.95;1.55;;;;;;;8.27;94.43;99289.19;4977019;28;96679;-34
2021/12/01 05:59:07;;;;;;;1.77;1.17;;;;;;;8.31;94.45;99287.97;4976273;28;98019;-34
2021/12/01 06:01:34;;;;;;;1.27;1.10;;;;;;;8.26;94.41;99284.78;4976927;28;96625;-35
2021/12/01 06:04:08;;;;;;;1.27;0.98;;;;;;;8.26;94.51;99295.56;4976628;28;96650;-34
2021/12/01 06:06:33;;;;;;;2.83;1.42;;;;;;;8.23;94.41;99283.19;4977113;28;96775;-34
2021/12/01 06:08:58;;;;;;;0.95;0.60;;;;;;;8.26;94.17;99300.97;4975938;28;97841;-34
2021/12/01 06:11:24;;;;;;;0.98;0.75;;;;;;;8.34;94.40;99303.06;4974355;28;122365;-34
2021/12/01 06:13:52;;;;;;;1.52;1.10;;;;;;;8.35;94.56;99284.06;4974737;28;96621;-34
2021/12/01 06:16:21;;;;;;;2.13;1.40;;;;;;;8.33;94.45;99277.09;4975068;28;96815;-35
2021/12/01 06:18:47;;;;;;;1.00;0.88;;;;;;;8.37;94.56;99262.38;4974828;28;100801;-34
2021/12/01 06:21:13;;;;;;;1.20;1.05;;;;;;;8.31;94.54;99252.91;4976077;28;99365;-35
2021/12/01 06:23:39;;;;;;;1.02;0.80;;;;;;;8.30;94.34;99253.91;4976258;28;96702;-34
2021/12/01 06:26:04;;;;;;;1.90;1.63;;;;;;;8.39;94.54;99255.88;4976074;28;96835;-35
2021/12/01 06:28:40;;;;;;;1.45;0.77;;;;;;;8.33;94.79;99253.66;4975353;28;117573;-35
2021/12/01 06:31:05;;;;;;;0.95;0.80;;;;;;;8.35;94.58;99258.94;4976329;28;99386;-35
2021/12/01 06:33:31;;;;;;;0.77;0.77;;;;;;;8.36;94.74;99253.41;4975807;28;105463;-35
2021/12/01 06:35:56;;;;;;;1.75;1.20;;;;;;;8.38;94.75;99246.06;4976319;28;96923;-34
2021/12/01 06:38:21;;;;;;;2.83;1.13;;;;;;;8.40;94.59;99252.22;4974550;28;122245;-34
2021/12/01 06:40:48;;;;;;;2.83;1.58;;;;;;;8.45;94.62;99260.81;4975974;28;97830;-35
2021/12/01 06:43:13;;;;;;;1.55;0.93;;;;;;;8.44;94.51;99253.72;4974608;28;96569;-35
2021/12/01 06:45:45;;;;;;;1.67;1.20;;;;;;;8.45;94.70;99241.94;4976087;28;96739;-35
2021/12/01 06:48:10;;;;;;;1.65;1.08;;;;;;;8.42;94.75;99225.13;4974401;28;100994;-34
2021/12/01 06:50:36;;;;;;;3.40;0.77;;;;;;;8.47;94.49;99231.88;4975321;28;112333;-34
2021/12/01 06:53:01;;;;;;;2.05;1.35;;;;;;;8.47;94.43;99225.63;4975375;28;110739;-34
2021/12/01 06:55:26;;;;;;;3.78;1.45;;;;;;;8.44;94.47;99218.63;4976164;28;96898;-34
2021/12/01 06:57:52;;;;;;;3.03;1.40;;;;;;;8.50;94.21;99218.13;4975592;28;97905;-34
2021/12/01 07:00:19;;;;;;;0.75;0.68;;;;;;;8.51;94.15;99219.03;4975378;28;98107;-34
2021/12/01 07:02:45;;;;;;;0.55;0.55;;;;;;;8.47;94.42;99204.91;4973931;28;96549;-34
2021/12/01 07:05:11;;;;;;;2.47;0.88;;;;;;;8.54;94.57;99221.47;4975942;28;96748;-35
2021/12/01 07:07:36;;;;;;;1.90;0.82;;;;;;;8.53;94.38;99210.78;4974033;28;101171;-34
2021/12/01 07:10:09;;;;;;;2.90;1.27;;;;;;;8.53;94.37;99206.25;4975539;28;97455;-35
2021/12/01 07:12:34;;;;;;;4.00;0.70;;;;;;;8.50;94.59;99188.44;4975336;28;97229;-34
2021/12/01 07:15:00;;;;;;;1.70;1.10;;;;;;;8.55;94.53;99187.22;4976180;28;96763;-34
2021/12/01 07:17:25;;;;;;;1.20;0.70;;;;;;;8.54;94.44;99189.09;4975759;28;98026;-35
2021/12/01 07:19:50;;;;;;;1.42;0.85;;;;;;;8.58;94.34;99185.16;4974293;28;127150;-34
2021/12/01 07:22:17;;;;;;;2.20;1.45;;;;;;;8.60;94.50;99182.31;4975306;28;96610;-34
2021/12/01 07:24:44;;;;;;;1.10;1.00;;;;;;;8.55;94.52;99171.03;4974057;28;96843;-35
2021/12/01 07:27:09;;;;;;;1.38;1.02;;;;;;;8.62;94.61;99175.81;4974407;28;99087;-34
2021/12/01 07:29:35;;;;;;;1.85;0.98;;;;;;;8.63;94.36;99179.41;4975270;28;97285;-35
2021/12/01 07:32:01;;;;;;;1.33;0.70;;;;;;;8.62;94.48;99165.03;4975672;28;97085;-34
2021/12/01 07:34:26;;;;;;;1.08;0.70;;;;;;;8.65;94.46;99159.41;4974245;28;96772;-34
2021/12/01 07:36:52;;;;;;;1.48;0.65;;;;;;;8.65;94.47;99159.41;4975322;28;98348;-34
2021/12/01 07:39:19;;;;;;;3.22;1.58;;;;;;;8.66;94.41;99160.25;4975180;28;97853;-34
2021/12/01 07:41:44;;;;;;;1.63;1.00;;;;;;;8.67;94.47;99153.84;4973819;28;97188;-34
2021/12/01 07:44:10;;;;;;;3.03;1.33;;;;;;;8.69;94.49;99163.53;4975592;28;96694;-35
2021/12/01 07:46:35;;;;;;;2.42;1.02;;;;;;;8.70;94.41;99170.69;4974303;28;111959;-34
2021/12/01 07:49:00;;;;;;;0.63;0.63;;;;;;;8.67;94.45;99170.06;4973504;28;99162;-34
2021/12/01 07:51:26;;;;;;;2.42;0.80;;;;;;;8.71;94.64;99163.44;4974607;28;98234;-34
2021/12/01 07:53:53;;;;;;;0.70;0.50;;;;;;;8.69;94.50;99187.84;4974767;28;100058;-34
2021/12/01 07:56:18;;;;;;;1.05;0.73;;;;;;;8.68;94.34;99171.78;4973297;28;101107;-35
2021/12/01 07:58:43;;;;;;;1.67;0.47;;;;;;;8.71;94.37;99175.09;4974179;28;117724;-35
2021/12/01 08:01:08;;;;;;;1.17;0.40;;;;;;;8.78;93.97;99174.59;4974078;28;113895;-35
2021/12/01 08:03:34;;;;;;;3.22;1.02;;;;;;;8.75;93.52;99180.22;4974147;28;116690;-34
2021/12/01 08:05:59;;;;;;;1.38;0.55;;;;;;;8.78;92.67;99191.66;4974531;28;99613;-34
2021/12/01 08:08:24;;;;;;;5.82;0.47;;;;;;;8.73;92.35;99174.13;4975008;28;98528;-34
2021/12/01 08:10:50;;;;;;;1.58;0.70;;;;;;;8.73;92.35;99188.47;4974581;28;97168;-35
2021/12/01 08:13:15;;;;;;;2.90;0.90;;;;;;;8.73;92.19;99183.06;4975090;28;96380;-35
2021/12/01 08:15:40;;;;;;;2.85;0.85;;;;;;;8.76;92.40;99198.16;4974307;28;98068;-35
2021/12/01 08:18:06;;;;;;;2.45;1.17;;;;;;;8.71;91.19;99190.44;4974984;28;97778;-34
2021/12/01 08:20:33;;;;;;;2.53;0.40;;;;;;;8.72;90.30;99211.03;4974912;28;96499;-35
2021/12/01 08:22:59;;;;;;;1.20;0.38;;;;;;;8.64;89.83;99219.75;4973421;28;96746;-34
2021/12/01 08:25:24;;;;;;;0.77;0.15;;;;;;;8.56;89.71;99191.66;4974275;28;97798;-35
2021/12/01 08:27:49;;;;;;;0.15;0.15;;;;;;;8.56;89.69;99215.97;4974781;28;97751;-34
2021/12/01 08:30:15;;;;;;;4.78;0.60;;;;;;;8.47;89.11;99210.28;4975425;28;96460;-34
2021/12/01 08:32:45;;;;;;;0.45;0.40;;;;;;;8.43;89.17;99208.81;4977127;28;96849;-35
2021/12/01 08:35:14;;;;;;;1.98;0.32;;;;;;;8.45;89.54;99214.94;4977986;28;97870;-34
2021/12/01 08:37:40;;;;;;;0.25;0.20;;;;;;;8.42;89.13;99227.84;4976533;28;100750;-34
2021/12/01 08:40:06;;;;;;;0.65;0.57;;;;;;;8.38;89.55;99207.44;4977752;28;96606;-35
2021/12/01 08:42:31;;;;;;;1.25;0.30;;;;;;;8.39;89.37;99230.72;4977820;28;96825;-35
2021/12/01 08:44:57;;;;;;;1.27;0.50;;;;;;;8.38;89.45;99237.97;4976334;28;100758;-34
2021/12/01 08:47:25;;;;;;;1.10;0.35;;;;;;;8.35;89.79;99230.13;4977492;28;99341;-35
2021/12/01 08:49:50;;;;;;;0.10;0.08;;;;;;;8.39;89.63;99238.81;4976741;28;96528;-35
2021/12/01 08:52:15;;;;;;;0.00;0.00;;;;;;;8.39;89.00;99247.78;4978101;28;96942;-34
2021/12/01 08:54:40;;;;;;;3.38;0.43;;;;;;;8.33;88.44;99229.38;4976861;28;111472;-35
2021/12/01 08:57:06;;;;;;;4.97;0.32;;;;;;;8.41;88.65;99251.25;4977679;28;111470;-35
2021/12/01 08:59:32;;;;;;;0.10;0.08;;;;;;;8.42;88.69;99241.31;4977392;28;96759;-34
2021/12/01 09:02:00;;;;;;;12.45;0.30;;;;;;;8.46;88.48;99246.38;4976575;28;96666;-35
2021/12/01 09:04:26;;;;;;;0.90;0.47;;;;;;;8.42;88.40;99250.28;4975378;28;101673;-35
2021/12/01 09:06:51;;;;;;;0.77;0.20;;;;;;;8.41;88.17;99248.53;4977535;28;97803;-35
2021/12/01 09:09:19;;;;;;;2.97;0.57;;;;;;;8.50;88.36;99242.41;4976825;28;108406;-35
2021/12/01 09:11:50;;;;;;;4.95;0.20;;;;;;;8.52;88.44;99260.34;4977767;28;96763;-34
2021/12/01 09:14:16;;;;;;;0.82;0.43;;;;;;;8.46;88.57;99262.56;4975838;28;104254;-34
2021/12/01 09:16:44;;;;;;;0.57;0.32;;;;;;;8.43;88.85;99257.38;4975743;28;100730;-34
2021/12/01 09:19:10;;;;;;;1.63;0.30;;;;;;;8.39;88.72;99255.00;4976201;28;96562;-34
2021/12/01 09:21:35;;;;;;;2.97;0.38;;;;;;;8.39;88.29;99265.78;4978097;28;96738;-35
2021/12/01 09:24:02;;;;;;;5.75;0.40;;;;;;;8.33;88.76;99261.75;4976976;28;99188;-34
2021/12/01 09:26:27;;;;;;;2.58;0.30;;;;;;;8.33;88.53;99274.38;4975447;28;101777;-34
2021/12/01 09:28:52;;;;;;;2.60;0.40;;;;;;;8.30;89.27;99287.13;4976708;28;96524;-35
2021/12/01 09:31:18;;;;;;;0.50;0.38;;;;;;;8.33;89.01;99287.88;4976496;28;113390;-34
2021/12/01 09:33:43;;;;;;;3.40;0.57;;;;;;;8.32;89.25;99289.72;4975505;28;99264;-35
2021/12/01 09:36:09;;;;;;;0.22;0.22;;;;;;;8.24;89.10;99297.53;4977077;28;97908;-35
2021/12/01 09:38:34;;;;;;;0.28;0.22;;;;;;;8.14;89.08;99302.78;4977238;28;96446;-34
2021/12/01 09:40:59;;;;;;;1.30;0.40;;;;;;;8.13;89.28;99298.38;4977384;28;96813;-34
2021/12/01 09:43:28;;;;;;;0.10;0.10;;;;;;;8.05;89.33;99301.63;4975952;28;97458;-35
2021/12/01 09:45:55;;;;;;;0.10;0.10;;;;;;;8.05;89.15;99312.41;4975740;28;100808;-35
2021/12/01 09:48:22;;;;;;;0.10;0.08;;;;;;;8.01;89.07;99304.69;4975600;28;96706;-34
2021/12/01 09:50:47;;;;;;;0.30;0.20;;;;;;;7.98;88.75;99294.13;4975276;28;96826;-35
2021/12/01 09:53:14;;;;;;;0.52;0.10;;;;;;;8.07;89.13;99307.75;4975918;28;99235;-35
2021/12/01 09:55:40;;;;;;;2.83;0.55;;;;;;;8.08;88.76;99296.03;4975145;28;100759;-35
2021/12/01 09:58:13;;;;;;;2.40;0.30;;;;;;;8.14;89.01;99305.47;4975577;28;96566;-35
2021/12/01 10:00:45;;;;;;;0.68;0.30;;;;;;;8.17;89.11;99304.38;4975083;28;96705;-34
2021/12/01 10:03:11;;;;;;;0.10;0.10;;;;;;;8.09;88.65;99297.72;4974961;28;101214;-35
2021/12/01 10:06:03;;;;;;;0.57;0.35;;;;;;;8.16;88.60;99313.44;4976372;28;99321;-35
2021/12/01 10:08:41;;;;;;;0.98;0.28;;;;;;;8.12;88.01;99315.50;4975323;28;96523;-34
2021/12/01 10:11:27;;;;;;;4.03;0.35;;;;;;;8.09;88.36;99313.91;4975754;28;96745;-35
2021/12/01 10:13:58;;;;;;;2.00;0.35;;;;;;;8.03;88.73;99318.91;4976253;28;97856;-34
2021/12/01 10:16:32;;;;;;;2.97;0.77;;;;;;;8.01;88.81;99310.09;4974824;28;100786;-35
2021/12/01 10:19:12;;;;;;;2.05;0.35;;;;;;;8.06;88.75;99313.28;4974705;28;96532;-34
2021/12/01 10:21:40;;;;;;;3.47;0.55;;;;;;;8.03;88.79;99294.63;4976736;28;96527;-34
2021/12/01 10:24:10;;;;;;;0.95;0.25;;;;;;;8.10;88.97;99290.47;4974380;28;100927;-35
2021/12/01 10:26:43;;;;;;;14.48;1.35;;;;;;;8.26;88.67;99296.44;4974488;28;101237;-35
2021/12/01 10:29:12;;;;;;;1.42;0.17;;;;;;;8.36;88.58;99296.56;4976504;28;96615;-35
2021/12/01 10:31:47;;;;;;;0.95;0.40;;;;;;;8.46;88.08;99294.94;4974908;28;96781;-35
2021/12/01 10:34:23;;;;;;;1.40;0.35;;;;;;;8.57;87.73;99291.38;4974509;28;103200;-34
2021/12/01 10:36:51;;;;;;;1.58;0.28;;;;;;;8.62;87.26;99291.88;4974687;28;101291;-35
2021/12/01 10:39:16;;;;;;;0.10;0.10;;;;;;;8.61;87.34;99287.47;4974712;28;96532;-35
2021/12/01 10:41:43;;;;;;;3.47;0.63;;;;;;;8.63;87.29;99299.00;4976156;28;96750;-34
2021/12/01 10:44:14;;;;;;;0.40;0.40;;;;;;;8.54;86.78;99288.06;4973909;28;100909;-34
2021/12/01 10:46:48;;;;;;;1.67;0.87;;;;;;;8.50;86.77;99280.19;4974344;28;101255;-34
2021/12/01 10:49:15;;;;;;;4.57;0.65;;;;;;;8.48;87.50;99274.06;4974665;28;96789;-35
2021/12/01 10:51:43;;;;;;;5.78;0.95;;;;;;;8.45;87.39;99279.69;4974680;28;96751;-34
2021/12/01 10:54:20;;;;;;;0.82;0.28;;;;;;;8.48;87.67;99284.84;4973818;28;100506;-34
2021/12/01 10:57:06;;;;;;;4.00;0.20;;;;;;;8.43;87.72;99270.00;4975835;28;97891;-34
2021/12/01 10:59:52;;;;;;;4.68;0.30;;;;;;;8.44;86.44;99283.41;4975181;28;96754;-34
2021/12/01 11:02:19;;;;;;;6.25;0.55;;;;;;;8.46;85.94;99280.56;4974901;28;96791;-34
2021/12/01 11:04:50;;;;;;;4.40;0.50;;;;;;;8.48;86.39;99276.75;4974154;28;100250;-35
2021/12/01 11:07:28;;;;;;;1.27;0.60;;;;;;;8.50;85.69;99282.03;4974108;28;100869;-34
2021/12/01 11:10:18;;;;;;;1.27;0.32;;;;;;;8.47;85.97;99269.66;4973854;28;96558;-34
2021/12/01 11:12:53;;;;;;;1.67;0.32;;;;;;;8.52;85.35;99281.94;4974397;28;96697;-35
2021/12/01 11:15:40;;;;;;;0.80;0.43;;;;;;;8.56;84.76;99294.22;4974427;28;97953;-34
2021/12/01 11:18:09;;;;;;;1.15;0.60;;;;;;;8.54;84.89;99279.97;4975444;28;97877;-34
2021/12/01 11:20:46;;;;;;;6.57;0.63;;;;;;;8.58;84.69;99286.84;4974226;28;96645;-35
2021/12/01 11:23:22;;;;;;;3.78;0.90;;;;;;;8.58;85.10;99281.44;4974169;28;96853;-34
2021/12/01 11:26:01;;;;;;;1.05;0.57;;;;;;;8.50;84.42;99266.72;4973803;28;100805;-35
2021/12/01 11:28:30;;;;;;;5.22;0.55;;;;;;;8.49;83.85;99283.03;4974350;28;100933;-34
2021/12/01 11:30:58;;;;;;;3.55;0.38;;;;;;;8.50;83.24;99269.41;4973955;28;96715;-35
2021/12/01 11:33:25;;;;;;;0.55;0.17;;;;;;;8.51;84.19;99286.47;4974085;28;96862;-35
2021/12/01 11:36:03;;;;;;;1.85;0.13;;;;;;;8.49;83.84;99275.78;4973205;28;104340;-35
2021/12/01 11:38:28;;;;;;;2.63;0.50;;;;;;;8.46;84.33;99288.66;4975041;28;99366;-35
2021/12/01 11:40:55;;;;;;;0.40;0.15;;;;;;;8.46;84.25;99278.75;4975245;28;96673;-34
2021/12/01 11:43:23;;;;;;;1.90;0.60;;;;;;;8.48;84.59;99290.25;4973519;28;96850;-35
2021/12/01 11:45:49;;;;;;;3.95;0.52;;;;;;;8.46;84.02;99284.16;4973490;28;101154;-35
2021/12/01 11:48:39;;;;;;;1.48;0.15;;;;;;;8.46;83.76;99288.66;4975011;28;97365;-35